Time;durP1;ratioP1;P1;durP2;ratioP2;P2;SDS_P1;SDS_P2;PMS_P1;PMS_P2;Temp;Humidity;BMP_temperature;BMP_pressure;BME280_temperature;BME280_humidity;BME280_pressure;Samples;Min_cycle;Max_cycle;Signal;HPM_P1;HPM_P2
2022/03/16 00:00:05;;;;;;;35.47;30.47;;;13.00;70.70;;;-142.21;100.00;112049.66;6038894;23;20410;-79
2022/03/16 00:02:32;;;;;;;37.20;33.17;;;13.00;71.00;;;-142.21;100.00;112049.66;6037998;23;20410;-78
2022/03/16 00:05:01;;;;;;;45.03;36.80;;;13.00;71.00;;;-142.21;100.00;112049.66;6038604;23;20467;-79
2022/03/16 00:07:28;;;;;;;39.33;33.97;;;13.00;71.10;;;-142.21;100.00;112049.66;6037359;23;20762;-78
2022/03/16 00:09:55;;;;;;;42.47;35.30;;;13.00;71.00;;;-142.21;100.00;112049.66;6038092;23;20454;-79
2022/03/16 00:12:23;;;;;;;37.37;33.00;;;13.00;71.00;;;-142.21;100.00;112049.66;6038121;23;20470;-78
2022/03/16 00:14:50;;;;;;;43.17;36.17;;;13.00;70.90;;;-142.21;100.00;112049.66;6038658;23;20456;-79
2022/03/16 00:17:17;;;;;;;40.67;35.40;;;13.00;71.00;;;-142.21;100.00;112049.66;6038497;23;20517;-79
2022/03/16 00:19:45;;;;;;;43.30;36.27;;;13.00;71.00;;;-142.21;100.00;112049.66;6037488;23;20437;-79
2022/03/16 00:22:14;;;;;;;38.00;33.87;;;12.90;71.00;;;-142.21;100.00;112049.66;6036534;23;20406;-78
2022/03/16 00:24:42;;;;;;;39.90;35.60;;;12.90;71.10;;;-142.21;100.00;112049.66;6037536;23;20414;-79
2022/03/16 00:27:09;;;;;;;34.90;31.13;;;13.00;71.10;;;-142.21;100.00;112049.66;6038639;23;21002;-78
2022/03/16 00:29:36;;;;;;;38.93;34.60;;;13.00;71.30;;;-142.21;100.00;112049.66;6038068;23;20489;-79
2022/03/16 00:32:05;;;;;;;35.90;32.10;;;12.90;71.20;;;-142.21;100.00;112049.66;6038569;23;20457;-79
2022/03/16 00:34:32;;;;;;;35.73;31.87;;;12.90;71.20;;;-142.21;100.00;112049.66;6013455;23;20903;-79
2022/03/16 00:37:00;;;;;;;41.43;35.93;;;12.90;71.00;;;-142.21;100.00;112049.66;6036873;23;20414;-78
2022/03/16 00:39:28;;;;;;;35.17;31.00;;;12.90;71.00;;;-142.21;100.00;112049.66;6037094;23;20497;-79
2022/03/16 00:41:56;;;;;;;39.00;34.83;;;12.90;71.00;;;-142.21;100.00;112049.66;6036806;23;20999;-79
2022/03/16 00:44:24;;;;;;;42.63;34.93;;;12.90;71.00;;;-142.21;100.00;112049.66;6040028;23;21143;-79
2022/03/16 00:46:51;;;;;;;45.20;35.83;;;12.90;71.10;;;-142.21;100.00;112049.66;6039635;23;20410;-79
2022/03/16 00:49:18;;;;;;;38.73;33.13;;;12.90;71.30;;;-142.21;100.00;112049.66;6040364;23;20438;-79
2022/03/16 00:51:45;;;;;;;49.43;38.53;;;12.90;71.10;;;-142.21;100.00;112049.66;6039889;23;20474;-78
2022/03/16 00:54:13;;;;;;;37.33;32.87;;;12.80;70.90;;;-142.21;100.00;112049.66;6039403;23;20792;-79
2022/03/16 00:56:41;;;;;;;34.70;31.00;;;12.90;71.20;;;-142.21;100.00;112049.66;6039970;23;20528;-78
2022/03/16 00:59:09;;;;;;;35.83;31.97;;;13.00;71.10;;;-142.21;100.00;112049.66;6039355;23;20809;-79
2022/03/16 01:01:37;;;;;;;42.17;34.53;;;13.00;70.60;;;-142.21;100.00;112049.66;6039644;23;20414;-79
2022/03/16 01:04:06;;;;;;;42.63;35.50;;;13.00;70.90;;;-142.21;100.00;112049.66;6037312;23;20482;-79
2022/03/16 01:06:33;;;;;;;42.40;35.83;;;13.00;70.50;;;-142.21;100.00;112049.66;6039583;23;20423;-79
2022/03/16 01:09:00;;;;;;;36.47;32.47;;;13.00;70.80;;;-142.21;100.00;112049.66;6039489;23;20498;-79
2022/03/16 01:11:28;;;;;;;35.60;31.80;;;13.00;70.90;;;-142.21;100.00;112049.66;6039583;23;20441;-79
2022/03/16 01:13:56;;;;;;;36.97;33.00;;;13.00;70.40;;;-142.21;100.00;112049.66;6039563;23;20455;-79
2022/03/16 01:16:24;;;;;;;36.33;31.37;;;13.10;70.80;;;-142.21;100.00;112049.66;6039020;23;20493;-78
2022/03/16 01:18:51;;;;;;;34.07;29.77;;;13.00;70.70;;;-142.21;100.00;112049.66;6039821;23;20411;-79
2022/03/16 01:21:18;;;;;;;45.73;38.43;;;13.10;70.70;;;-142.21;100.00;112049.66;6039321;23;20497;-79
2022/03/16 01:23:45;;;;;;;46.07;37.27;;;13.00;70.80;;;-142.21;100.00;112049.66;6039250;23;20939;-80
2022/03/16 01:26:12;;;;;;;43.23;35.70;;;13.00;70.70;;;-142.21;100.00;112049.66;6039888;23;20410;-79
2022/03/16 01:28:40;;;;;;;44.27;37.10;;;13.00;70.90;;;-142.21;100.00;112049.66;6039298;23;20422;-80
2022/03/16 01:31:08;;;;;;;42.53;36.23;;;13.00;71.00;;;-142.21;100.00;112049.66;6039836;23;20429;-79
2022/03/16 01:33:36;;;;;;;45.33;38.23;;;13.00;71.10;;;-142.21;100.00;112049.66;6038291;23;20446;-79
2022/03/16 01:36:03;;;;;;;43.47;36.63;;;13.00;70.90;;;-142.21;100.00;112049.66;6039649;23;20450;-80
2022/03/16 01:38:30;;;;;;;43.73;37.20;;;13.00;70.90;;;-142.21;100.00;112049.66;6039016;23;20489;-79
2022/03/16 01:40:57;;;;;;;46.63;37.13;;;12.90;71.60;;;-142.21;100.00;112049.66;6039488;23;20510;-79
2022/03/16 01:43:25;;;;;;;50.47;37.90;;;12.90;71.20;;;-142.21;100.00;112049.66;6038324;23;20411;-80
2022/03/16 01:45:53;;;;;;;44.87;37.73;;;12.80;71.30;;;-142.21;100.00;112049.66;6038855;23;20450;-79
2022/03/16 01:48:22;;;;;;;45.80;37.70;;;12.80;71.60;;;-142.21;100.00;112049.66;6039060;23;20467;-79
2022/03/16 01:50:50;;;;;;;56.53;41.43;;;12.90;71.50;;;-142.21;100.00;112049.66;6037726;23;20511;-79
2022/03/16 01:53:18;;;;;;;49.80;38.73;;;12.70;71.50;;;-142.21;100.00;112049.66;6039189;23;20493;-79
2022/03/16 01:55:46;;;;;;;48.67;39.73;;;12.70;71.90;;;-142.21;100.00;112049.66;6038561;23;20485;-78
2022/03/16 01:58:14;;;;;;;50.90;38.80;;;12.70;71.80;;;-142.21;100.00;112049.66;6039142;23;20442;-79
2022/03/16 02:00:42;;;;;;;55.83;41.87;;;12.70;71.90;;;-142.21;100.00;112049.66;6038769;23;20490;-79
2022/03/16 02:03:09;;;;;;;54.27;40.83;;;12.60;71.90;;;-142.21;100.00;112049.66;6038942;23;20414;-79
2022/03/16 02:05:38;;;;;;;51.40;40.53;;;12.70;71.90;;;-142.21;100.00;112049.66;6039176;23;20481;-77
2022/03/16 02:08:08;;;;;;;51.30;39.73;;;12.70;72.10;;;-142.21;100.00;112049.66;6038751;23;20777;-80
2022/03/16 02:10:36;;;;;;;55.20;40.03;;;12.70;72.00;;;-142.21;100.00;112049.66;6038846;23;20904;-79
2022/03/16 02:13:04;;;;;;;61.53;43.33;;;12.70;72.00;;;-142.21;100.00;112049.66;6037860;23;20415;-79
2022/03/16 02:15:33;;;;;;;49.40;39.60;;;12.70;72.00;;;-142.21;100.00;112049.66;6037364;23;20497;-79
2022/03/16 02:18:00;;;;;;;51.83;39.67;;;12.70;71.90;;;-142.21;100.00;112049.66;6038140;23;20452;-80
2022/03/16 02:20:28;;;;;;;59.37;42.10;;;12.70;72.00;;;-142.21;100.00;112049.66;6039298;23;20471;-79
2022/03/16 02:22:58;;;;;;;54.63;41.30;;;12.60;72.10;;;-142.21;100.00;112049.66;6038457;23;20884;-79
2022/03/16 02:25:27;;;;;;;63.50;44.53;;;12.60;72.50;;;-142.21;100.00;112049.66;6039714;23;20454;-79
2022/03/16 02:27:54;;;;;;;62.40;43.13;;;12.50;72.50;;;-142.21;100.00;112049.66;6038917;23;20418;-79
2022/03/16 02:30:22;;;;;;;53.60;38.80;;;12.50;72.60;;;-142.21;100.00;112049.66;6038348;23;20410;-79
2022/03/16 02:32:50;;;;;;;59.33;42.10;;;12.50;72.70;;;-142.21;100.00;112049.66;6039053;23;20406;-80
2022/03/16 02:35:18;;;;;;;67.90;44.93;;;12.50;72.70;;;-142.21;100.00;112049.66;6038156;23;20726;-80
2022/03/16 02:37:45;;;;;;;56.40;42.37;;;12.50;72.90;;;-142.21;100.00;112049.66;6038162;23;20560;-79
2022/03/16 02:40:20;;;;;;;65.03;43.50;;;12.40;73.60;;;-142.21;100.00;112049.66;6037552;23;20426;-79
2022/03/16 02:42:47;;;;;;;59.73;42.20;;;12.40;73.30;;;-142.21;100.00;112049.66;6037589;23;20397;-78
2022/03/16 02:45:15;;;;;;;61.93;42.60;;;12.50;73.20;;;-142.21;100.00;112049.66;6038732;23;20443;-79
2022/03/16 02:47:42;;;;;;;56.20;41.03;;;12.50;72.90;;;-142.21;100.00;112049.66;6038871;23;20953;-79
2022/03/16 02:50:12;;;;;;;63.30;42.87;;;12.50;72.80;;;-142.21;100.00;112049.66;6038449;23;20446;-80
2022/03/16 02:52:40;;;;;;;53.23;39.27;;;12.50;73.20;;;-142.21;100.00;112049.66;6038806;23;20418;-79
2022/03/16 02:55:08;;;;;;;67.37;44.53;;;12.50;72.90;;;-142.21;100.00;112049.66;6038608;23;20411;-78
2022/03/16 02:57:38;;;;;;;54.00;39.87;;;12.50;73.20;;;-142.21;100.00;112049.66;6038111;23;20473;-79
2022/03/16 03:00:07;;;;;;;67.70;43.63;;;12.40;73.20;;;-142.21;100.00;112049.66;6038505;23;20493;-79
2022/03/16 03:02:35;;;;;;;62.47;43.30;;;12.50;73.40;;;-142.21;100.00;112049.66;6037458;23;20883;-79
2022/03/16 03:05:02;;;;;;;62.23;41.90;;;12.50;74.00;;;-142.21;100.00;112049.66;6037446;23;20434;-78
2022/03/16 03:07:31;;;;;;;69.33;45.10;;;12.50;73.20;;;-142.21;100.00;112049.66;6035996;23;20433;-77
2022/03/16 03:09:58;;;;;;;62.90;42.50;;;12.50;73.20;;;-142.21;100.00;112049.66;6039110;23;20522;-80
2022/03/16 03:12:25;;;;;;;61.30;42.97;;;12.40;73.80;;;-142.21;100.00;112049.66;6038655;23;20568;-80
2022/03/16 03:14:53;;;;;;;64.70;41.60;;;12.50;72.70;;;-142.21;100.00;112049.66;6036846;23;20723;-79
2022/03/16 03:17:21;;;;;;;68.83;43.57;;;12.50;73.00;;;-142.21;100.00;112049.66;6038167;23;20485;-80
2022/03/16 03:19:48;;;;;;;71.73;45.67;;;12.50;73.00;;;-142.21;100.00;112049.66;6037617;23;20409;-79
2022/03/16 03:22:15;;;;;;;69.27;44.80;;;12.50;73.00;;;-142.21;100.00;112049.66;6038840;23;20441;-80
2022/03/16 03:24:44;;;;;;;65.43;43.13;;;12.50;73.00;;;-142.21;100.00;112049.66;6037665;23;20422;-79
2022/03/16 03:27:11;;;;;;;63.87;42.47;;;12.40;73.00;;;-142.21;100.00;112049.66;6039023;23;20414;-78
2022/03/16 03:29:38;;;;;;;63.07;43.27;;;12.30;73.30;;;-142.21;100.00;112049.66;6038286;23;20418;-79
2022/03/16 03:32:08;;;;;;;69.33;45.27;;;12.30;73.40;;;-142.21;100.00;112049.66;6038210;23;20772;-81
2022/03/16 03:34:35;;;;;;;62.90;42.27;;;12.30;73.60;;;-142.21;100.00;112049.66;6038063;23;20899;-79
2022/03/16 03:37:03;;;;;;;64.30;42.40;;;12.40;73.20;;;-142.21;100.00;112049.66;6037154;23;20506;-80
2022/03/16 03:39:30;;;;;;;57.10;39.23;;;12.40;73.20;;;-142.21;100.00;112049.66;6037612;23;20418;-79
2022/03/16 03:41:57;;;;;;;66.27;42.97;;;12.40;73.20;;;-142.21;100.00;112049.66;6037172;23;20442;-78
2022/03/16 03:44:25;;;;;;;57.33;40.27;;;12.40;73.10;;;-142.21;100.00;112049.66;6038194;23;20418;-79
2022/03/16 03:46:52;;;;;;;67.47;42.43;;;12.30;73.20;;;-142.21;100.00;112049.66;6038339;23;20402;-80
2022/03/16 03:49:20;;;;;;;59.13;40.00;;;12.40;73.20;;;-142.21;100.00;112049.66;6037627;23;20442;-79
2022/03/16 03:51:47;;;;;;;82.73;46.47;;;12.30;73.00;;;-142.21;100.00;112049.66;6038778;23;20426;-79
2022/03/16 03:54:15;;;;;;;65.67;43.20;;;12.40;73.00;;;-142.21;100.00;112049.66;6037664;23;20464;-79
2022/03/16 03:56:43;;;;;;;66.57;42.47;;;12.40;72.90;;;-142.21;100.00;112049.66;6037131;23;20537;-77
2022/03/16 03:59:10;;;;;;;67.57;43.67;;;12.40;72.80;;;-142.21;100.00;112049.66;6036892;23;20398;-79
2022/03/16 04:01:38;;;;;;;75.87;44.27;;;12.40;72.50;;;-142.21;100.00;112049.66;6038293;23;20410;-79
2022/03/16 04:04:07;;;;;;;61.90;42.27;;;12.40;72.90;;;-142.21;100.00;112049.66;6038325;23;20438;-79
2022/03/16 04:06:35;;;;;;;57.77;41.17;;;12.40;72.90;;;-142.21;100.00;112049.66;6038401;23;20454;-79
2022/03/16 04:09:02;;;;;;;58.10;41.10;;;12.40;72.90;;;-142.21;100.00;112049.66;6038650;23;20434;-79
2022/03/16 04:11:29;;;;;;;63.17;40.93;;;12.40;72.80;;;-142.21;100.00;112049.66;6036399;23;20501;-79
2022/03/16 04:13:57;;;;;;;55.77;38.93;;;12.40;72.90;;;-142.21;100.00;112049.66;6037953;23;20414;-79
2022/03/16 04:16:26;;;;;;;64.10;41.73;;;12.40;72.90;;;-142.21;100.00;112049.66;6036740;23;20529;-79
2022/03/16 04:18:53;;;;;;;58.87;40.17;;;12.40;73.00;;;-142.21;100.00;112049.66;6040131;23;20911;-80
2022/03/16 04:21:21;;;;;;;62.50;41.03;;;12.40;72.80;;;-142.21;100.00;112049.66;6040503;23;20409;-79
2022/03/16 04:23:49;;;;;;;59.90;40.07;;;12.40;73.00;;;-142.21;100.00;112049.66;6040310;23;20483;-80
2022/03/16 04:26:17;;;;;;;52.03;37.47;;;12.30;74.00;;;-142.21;100.00;112049.66;6039772;23;20409;-79
2022/03/16 04:28:45;;;;;;;54.37;38.23;;;12.40;73.00;;;-142.21;100.00;112049.66;6039571;23;20975;-80
2022/03/16 04:31:12;;;;;;;59.00;40.20;;;12.40;72.80;;;-142.21;100.00;112049.66;6039967;23;20398;-79
2022/03/16 04:33:40;;;;;;;58.27;40.30;;;12.40;72.80;;;-142.21;100.00;112049.66;6038122;23;20441;-80
2022/03/16 04:36:07;;;;;;;54.47;38.00;;;12.40;73.20;;;-142.21;100.00;112049.66;6040334;23;20745;-80
2022/03/16 04:38:35;;;;;;;53.67;38.77;;;12.30;73.30;;;-142.21;100.00;112049.66;6039229;23;20457;-78
2022/03/16 04:41:04;;;;;;;50.73;39.20;;;12.30;73.10;;;-142.21;100.00;112049.66;6039714;23;20406;-80
2022/03/16 04:43:32;;;;;;;56.37;38.63;;;12.30;73.50;;;-142.21;100.00;112049.66;6040164;23;20403;-80
2022/03/16 04:45:59;;;;;;;49.97;36.97;;;12.30;73.30;;;-142.21;100.00;112049.66;6038574;23;20807;-79
2022/03/16 04:48:27;;;;;;;53.77;36.37;;;12.30;73.50;;;-142.21;100.00;112049.66;6039382;23;20410;-80
2022/03/16 04:50:54;;;;;;;45.63;33.73;;;12.30;73.40;;;-142.21;100.00;112049.66;6038543;23;20445;-79
2022/03/16 04:53:22;;;;;;;43.87;33.27;;;12.30;73.50;;;-142.21;100.00;112049.66;6038370;23;21006;-78
2022/03/16 04:55:49;;;;;;;44.43;34.73;;;12.30;73.30;;;-142.21;100.00;112049.66;6038758;23;20915;-78
2022/03/16 04:58:18;;;;;;;48.30;36.33;;;12.30;73.10;;;-142.21;100.00;112049.66;6040019;23;20450;-79
2022/03/16 05:00:45;;;;;;;48.47;36.07;;;12.30;73.40;;;-142.21;100.00;112049.66;6040178;23;20442;-80
2022/03/16 05:03:12;;;;;;;43.50;34.67;;;12.20;73.50;;;-142.21;100.00;112049.66;6039400;23;20497;-79
2022/03/16 05:05:49;;;;;;;40.57;33.30;;;12.30;73.50;;;-142.21;100.00;112049.66;6039809;23;20402;-80
2022/03/16 05:08:16;;;;;;;41.10;32.80;;;12.20;73.90;;;-142.21;100.00;112049.66;6040163;23;20430;-79
2022/03/16 05:10:43;;;;;;;45.37;35.37;;;12.20;73.40;;;-142.21;100.00;112049.66;6039819;23;20446;-79
2022/03/16 05:13:10;;;;;;;41.67;34.23;;;12.20;73.40;;;-142.21;100.00;112049.66;6039243;23;20517;-80
2022/03/16 05:15:39;;;;;;;36.63;30.83;;;12.20;73.40;;;-142.21;100.00;112049.66;6038785;23;20441;-79
2022/03/16 05:18:06;;;;;;;41.63;33.60;;;12.20;73.30;;;-142.21;100.00;112049.66;6038736;23;20453;-79
2022/03/16 05:20:34;;;;;;;42.03;33.33;;;12.30;73.10;;;-142.21;100.00;112049.66;6038378;23;20410;-81
2022/03/16 05:23:01;;;;;;;39.07;32.23;;;12.30;72.80;;;-142.21;100.00;112049.66;6039960;23;20410;-79
2022/03/16 05:25:31;;;;;;;33.67;30.00;;;12.30;72.80;;;-142.21;100.00;112049.66;6038660;23;20414;-81
2022/03/16 05:27:59;;;;;;;35.63;30.27;;;12.30;73.00;;;-142.21;100.00;112049.66;6039526;23;20493;-79
2022/03/16 05:30:27;;;;;;;33.53;29.63;;;12.30;72.80;;;-142.21;100.00;112049.66;6038728;23;20493;-78
2022/03/16 05:33:00;;;;;;;36.23;31.37;;;12.30;72.40;;;-142.21;100.00;112049.66;6039913;23;20514;-80
2022/03/16 05:35:28;;;;;;;33.43;29.40;;;12.20;72.40;;;-142.21;100.00;112049.66;6038808;23;20429;-79
2022/03/16 05:37:55;;;;;;;32.53;29.03;;;12.20;72.50;;;-142.21;100.00;112049.66;6038896;23;20450;-79
2022/03/16 05:40:23;;;;;;;33.20;29.70;;;12.30;72.20;;;-142.21;100.00;112049.66;6038049;23;20419;-80
2022/03/16 05:43:27;;;;;;;30.97;27.70;;;12.30;72.00;;;-142.21;100.00;112049.66;6038131;23;20496;-77
2022/03/16 05:45:55;;;;;;;34.10;30.40;;;12.30;72.30;;;-142.21;100.00;112049.66;6039388;23;20823;-79
2022/03/16 05:48:23;;;;;;;31.00;27.67;;;12.30;72.00;;;-142.21;100.00;112049.66;6039794;23;20475;-79
2022/03/16 05:50:50;;;;;;;32.87;29.27;;;12.30;71.70;;;-142.21;100.00;112049.66;6039297;23;20437;-80
2022/03/16 05:53:18;;;;;;;34.17;30.47;;;12.30;71.60;;;-142.21;100.00;112049.66;6039315;23;20496;-79
2022/03/16 05:55:45;;;;;;;32.37;28.87;;;12.20;71.60;;;-142.21;100.00;112049.66;6037664;23;20414;-80
2022/03/16 05:58:13;;;;;;;34.37;29.73;;;12.30;71.90;;;-142.21;100.00;112049.66;6037728;23;20484;-80
2022/03/16 06:00:42;;;;;;;31.30;27.90;;;12.30;71.20;;;-142.21;100.00;112049.66;6038432;23;20414;-80
2022/03/16 06:03:11;;;;;;;34.00;29.30;;;12.40;71.00;;;-142.21;100.00;112049.66;6039701;23;20505;-80
2022/03/16 06:05:39;;;;;;;32.20;28.43;;;12.40;71.20;;;-142.21;100.00;112049.66;6038374;23;20454;-79
2022/03/16 06:08:07;;;;;;;32.60;28.60;;;12.30;70.70;;;-142.21;100.00;112049.66;6038961;23;20460;-80
2022/03/16 06:10:34;;;;;;;34.87;30.57;;;12.40;70.50;;;-142.21;100.00;112049.66;6039450;23;20459;-80
2022/03/16 06:13:04;;;;;;;34.50;30.53;;;12.40;70.70;;;-142.21;100.00;112049.66;6038778;23;20442;-80
2022/03/16 06:15:38;;;;;;;33.50;29.50;;;12.30;70.70;;;-142.21;100.00;112049.66;6039684;23;20503;-80
2022/03/16 06:18:05;;;;;;;33.70;29.93;;;12.30;70.80;;;-142.21;100.00;112049.66;6038044;23;20484;-80
2022/03/16 06:20:36;;;;;;;33.93;29.90;;;12.30;70.50;;;-142.21;100.00;112049.66;6038514;23;20448;-79
2022/03/16 06:23:06;;;;;;;32.73;29.17;;;12.30;70.70;;;-142.21;100.00;112049.66;6037379;23;20423;-80
2022/03/16 06:25:34;;;;;;;33.43;29.57;;;12.20;70.80;;;-142.21;100.00;112049.66;6039235;23;20751;-80
2022/03/16 06:28:01;;;;;;;34.07;29.47;;;12.00;71.00;;;-142.21;100.00;112049.66;6038221;23;20406;-78
2022/03/16 06:30:29;;;;;;;31.63;28.37;;;11.80;71.60;;;-142.21;100.00;112049.66;6039041;23;20940;-80
2022/03/16 06:32:56;;;;;;;32.87;28.70;;;11.80;72.00;;;-142.21;100.00;112049.66;6038510;23;20425;-77
2022/03/16 06:35:24;;;;;;;32.60;29.20;;;11.90;72.10;;;-142.21;100.00;112049.66;6039134;23;20430;-77
2022/03/16 06:37:52;;;;;;;32.93;29.07;;;11.80;72.10;;;-142.21;100.00;112049.66;6038524;23;20470;-78
2022/03/16 06:40:21;;;;;;;31.83;28.43;;;11.90;71.70;;;-142.21;100.00;112049.66;6038316;23;20454;-79
2022/03/16 06:42:54;;;;;;;32.33;28.87;;;11.80;71.90;;;-142.21;100.00;112049.66;6038885;23;20517;-77
2022/03/16 06:45:24;;;;;;;33.13;29.60;;;11.80;72.20;;;-142.21;100.00;112049.66;6037596;23;20379;-78
2022/03/16 06:47:55;;;;;;;33.27;29.67;;;11.80;72.20;;;-142.21;100.00;112049.66;6038771;23;20453;-79
2022/03/16 06:50:23;;;;;;;32.83;29.23;;;11.80;71.70;;;-142.21;100.00;112049.66;6038005;23;21030;-80
2022/03/16 06:52:50;;;;;;;34.17;29.67;;;11.80;71.70;;;-142.21;100.00;112049.66;6038751;23;20848;-80
2022/03/16 06:55:17;;;;;;;35.50;29.73;;;11.80;71.90;;;-142.21;100.00;112049.66;6038008;23;20418;-78
2022/03/16 06:57:46;;;;;;;32.53;28.40;;;11.60;72.00;;;-142.21;100.00;112049.66;6038567;23;20955;-80
2022/03/16 07:00:15;;;;;;;33.53;28.43;;;11.60;72.40;;;-142.21;100.00;112049.66;6038692;23;20903;-80
2022/03/16 07:03:00;;;;;;;32.07;28.60;;;11.50;72.80;;;-142.21;100.00;112049.66;6037219;23;20434;-78
2022/03/16 07:05:33;;;;;;;32.77;29.23;;;11.50;73.10;;;-142.21;100.00;112049.66;6037419;23;20971;-78
2022/03/16 07:08:03;;;;;;;34.20;30.17;;;11.50;73.30;;;-142.21;100.00;112049.66;6038746;23;20397;-78
2022/03/16 07:10:32;;;;;;;32.10;28.67;;;11.50;72.90;;;-142.21;100.00;112049.66;6038122;23;20427;-79
2022/03/16 07:13:03;;;;;;;33.53;30.03;;;11.60;72.80;;;-142.21;100.00;112049.66;6038418;23;20418;-78
2022/03/16 07:15:35;;;;;;;33.07;29.50;;;11.70;72.80;;;-142.21;100.00;112049.66;6038053;23;20402;-75
2022/03/16 07:18:03;;;;;;;34.83;29.83;;;11.80;72.60;;;-142.21;100.00;112049.66;6038063;23;20450;-78
2022/03/16 07:20:31;;;;;;;32.97;29.17;;;11.80;72.40;;;-142.21;100.00;112049.66;6037012;23;20487;-80
2022/03/16 07:23:10;;;;;;;34.73;30.07;;;11.80;72.60;;;-142.21;100.00;112049.66;6038124;23;20442;-77
2022/03/16 07:25:39;;;;;;;33.80;28.80;;;11.80;73.10;;;-142.21;100.00;112049.66;6037803;23;20438;-78
2022/03/16 07:28:08;;;;;;;34.93;30.50;;;11.80;72.60;;;-142.21;100.00;112049.66;6038864;23;20458;-78
2022/03/16 07:30:36;;;;;;;33.83;30.03;;;11.90;72.60;;;-142.21;100.00;112049.66;6038222;23;20485;-81
2022/03/16 07:33:04;;;;;;;34.43;29.03;;;12.00;72.80;;;-142.21;100.00;112049.66;6039331;23;20418;-80
2022/03/16 07:35:32;;;;;;;32.23;28.63;;;12.10;72.70;;;-142.21;100.00;112049.66;6040004;23;20414;-79
2022/03/16 07:38:02;;;;;;;34.63;30.27;;;12.20;72.10;;;-142.21;100.00;112049.66;6039235;23;20453;-76
2022/03/16 07:40:31;;;;;;;34.00;29.77;;;12.10;72.20;;;-142.21;100.00;112049.66;6039775;23;20449;-79
2022/03/16 07:42:59;;;;;;;33.20;27.77;;;12.10;72.50;;;-142.21;100.00;112049.66;6039305;23;20895;-75
2022/03/16 07:45:28;;;;;;;34.13;28.90;;;12.30;72.10;;;-142.21;100.00;112049.66;6038573;23;20445;-78
2022/03/16 07:47:56;;;;;;;34.50;30.50;;;12.40;72.20;;;-142.21;100.00;112049.66;6038149;23;20434;-80
2022/03/16 07:50:23;;;;;;;33.67;29.17;;;12.50;72.00;;;-142.21;100.00;112049.66;6039272;23;20515;-80
2022/03/16 07:52:51;;;;;;;36.47;29.90;;;12.50;71.50;;;-142.21;100.00;112049.66;6040448;23;20414;-76
2022/03/16 07:55:18;;;;;;;35.03;30.73;;;12.60;71.60;;;-142.21;100.00;112049.66;6040960;23;20464;-77
2022/03/16 07:57:45;;;;;;;35.97;30.73;;;12.50;71.40;;;-142.21;100.00;112049.66;6041948;23;20457;-76
2022/03/16 08:00:15;;;;;;;31.93;28.43;;;12.60;71.50;;;-142.21;100.00;112049.66;6040835;23;20470;-75
2022/03/16 08:02:44;;;;;;;33.17;28.83;;;12.60;71.90;;;-142.21;100.00;112049.66;6041160;23;20485;-75
2022/03/16 08:05:13;;;;;;;33.23;29.30;;;12.60;71.30;;;-142.21;100.00;112049.66;6041608;23;20418;-77
2022/03/16 08:07:41;;;;;;;34.60;30.67;;;12.30;71.50;;;-142.21;100.00;112049.66;6041581;23;20915;-75
2022/03/16 08:10:10;;;;;;;38.67;30.10;;;12.40;71.90;;;-142.21;100.00;112049.66;6040512;23;20895;-76
2022/03/16 08:12:37;;;;;;;35.57;30.37;;;12.40;72.40;;;-142.21;100.00;112049.66;6041970;23;20399;-77
2022/03/16 08:15:06;;;;;;;34.83;30.20;;;12.30;72.60;;;-142.21;100.00;112049.66;6041405;23;20711;-76
2022/03/16 08:17:34;;;;;;;36.50;30.40;;;12.30;72.70;;;-142.21;100.00;112049.66;6041714;23;20488;-75
2022/03/16 08:20:02;;;;;;;36.47;30.10;;;12.40;72.50;;;-142.21;100.00;112049.66;6040559;23;20430;-75
2022/03/16 08:22:32;;;;;;;36.27;29.90;;;12.50;72.40;;;-142.21;100.00;112049.66;6040047;23;20431;-74
2022/03/16 08:25:03;;;;;;;36.87;31.13;;;12.70;72.70;;;-142.21;100.00;112049.66;6041174;23;20469;-77
2022/03/16 08:27:31;;;;;;;38.73;31.53;;;12.80;72.30;;;-142.21;100.00;112049.66;6040839;23;20450;-75
2022/03/16 08:29:58;;;;;;;37.03;30.57;;;12.90;71.90;;;-142.21;100.00;112049.66;6040716;23;20410;-75
2022/03/16 08:32:27;;;;;;;36.60;30.30;;;12.70;71.60;;;-142.21;100.00;112049.66;6040659;23;20406;-74
2022/03/16 08:34:55;;;;;;;36.43;29.60;;;12.80;72.30;;;-142.21;100.00;112049.66;6040225;23;20398;-74
2022/03/16 08:37:24;;;;;;;35.53;30.13;;;12.90;72.00;;;-142.21;100.00;112049.66;6039199;23;20463;-74
2022/03/16 08:39:53;;;;;;;39.00;30.87;;;12.90;72.00;;;-142.21;100.00;112049.66;6039537;23;20426;-76
2022/03/16 08:42:21;;;;;;;38.30;31.33;;;13.00;71.90;;;-142.21;100.00;112049.66;6041227;23;20740;-75
2022/03/16 08:44:48;;;;;;;39.53;33.37;;;13.10;71.90;;;-142.21;100.00;112049.66;6040668;23;20442;-75
2022/03/16 08:47:16;;;;;;;38.87;30.00;;;13.10;71.50;;;-142.21;100.00;112049.66;6040707;23;20430;-75
2022/03/16 08:49:44;;;;;;;42.07;32.27;;;13.20;71.50;;;-142.21;100.00;112049.66;6039768;23;20468;-76
2022/03/16 08:52:12;;;;;;;37.90;31.27;;;13.20;71.30;;;-142.21;100.00;112049.66;6041057;23;20736;-74
2022/03/16 08:54:41;;;;;;;38.30;32.17;;;13.30;71.30;;;-142.21;100.00;112049.66;6040502;23;20885;-76
2022/03/16 08:57:09;;;;;;;42.47;33.10;;;13.20;71.10;;;-142.21;100.00;112049.66;6041031;23;20405;-75
2022/03/16 08:59:37;;;;;;;41.90;32.47;;;13.30;71.60;;;-142.21;100.00;112049.66;6040302;23;20399;-74
2022/03/16 09:02:05;;;;;;;39.57;32.20;;;13.40;71.50;;;-142.21;100.00;112049.66;6039635;23;20430;-77
2022/03/16 09:04:34;;;;;;;39.83;31.57;;;13.50;71.30;;;-142.21;100.00;112049.66;6040022;23;20403;-78
2022/03/16 09:07:03;;;;;;;37.33;30.60;;;13.50;70.40;;;-142.21;100.00;112049.66;6040628;23;20584;-77
2022/03/16 09:09:31;;;;;;;36.60;29.47;;;13.50;71.30;;;-142.21;100.00;112049.66;6040930;23;20884;-77
2022/03/16 09:12:00;;;;;;;37.63;30.97;;;13.60;71.00;;;-142.21;100.00;112049.66;6039364;23;20407;-77
2022/03/16 09:14:28;;;;;;;32.27;28.17;;;13.70;70.50;;;-142.21;100.00;112049.66;6039980;23;20411;-78
2022/03/16 09:16:56;;;;;;;35.67;29.67;;;13.80;70.10;;;-142.21;100.00;112049.66;6039498;23;20438;-77
2022/03/16 09:19:24;;;;;;;32.23;27.73;;;14.00;70.30;;;-142.21;100.00;112049.66;6040357;23;20442;-77
2022/03/16 09:21:52;;;;;;;32.93;28.60;;;14.00;69.30;;;-142.21;100.00;112049.66;6040037;23;20406;-76
2022/03/16 09:24:20;;;;;;;34.30;29.83;;;14.10;69.00;;;-142.21;100.00;112049.66;6040947;23;20505;-77
2022/03/16 09:26:48;;;;;;;31.93;28.27;;;14.20;69.30;;;-142.21;100.00;112049.66;6040315;23;20446;-77
2022/03/16 09:29:18;;;;;;;33.43;29.77;;;14.00;68.50;;;-142.21;100.00;112049.66;6040087;23;20410;-77
2022/03/16 09:31:46;;;;;;;33.43;28.90;;;14.10;68.80;;;-142.21;100.00;112049.66;6040303;23;20467;-77
2022/03/16 09:34:14;;;;;;;30.87;26.67;;;14.20;69.10;;;-142.21;100.00;112049.66;6040086;23;20917;-78
2022/03/16 09:36:42;;;;;;;33.40;28.37;;;14.20;68.80;;;-142.21;100.00;112049.66;6039623;23;20488;-77
2022/03/16 09:39:10;;;;;;;31.80;27.20;;;14.20;68.20;;;-142.21;100.00;112049.66;6039663;23;20457;-77
2022/03/16 09:41:38;;;;;;;31.73;28.00;;;14.30;69.20;;;-142.21;100.00;112049.66;6040970;23;20421;-77
2022/03/16 09:44:06;;;;;;;30.63;27.40;;;14.40;68.00;;;-142.21;100.00;112049.66;6039877;23;20403;-76